Time;durP1;ratioP1;P1;durP2;ratioP2;P2;SDS_P1;SDS_P2;PMS_P1;PMS_P2;Temp;Humidity;BMP_temperature;BMP_pressure;BME280_temperature;BME280_humidity;BME280_pressure;Samples;Min_cycle;Max_cycle;Signal;HPM_P1;HPM_P2
2022/01/23 00:01:32;;;;;;;11.50;8.48;;;;;13.00;103332.00;;;;5089859;28;20194;-86
2022/01/23 00:04:01;;;;;;;10.90;8.32;;;;;12.90;103335.00;;;;5088232;28;20228;-86
2022/01/23 00:06:28;;;;;;;12.07;7.72;;;;;12.90;103337.00;;;;5100210;28;20197;-87
2022/01/23 00:08:57;;;;;;;12.40;7.68;;;;;12.90;103334.00;;;;5110239;28;20201;-86
2022/01/23 00:11:27;;;;;;;10.77;7.38;;;;;12.90;103324.00;;;;5083856;28;20237;-87
2022/01/23 00:19:25;;;;;;;11.10;7.53;;;;;12.90;103339.00;;;;5105978;28;20217;-86
2022/01/23 00:21:57;;;;;;;10.90;8.07;;;;;12.90;103332.00;;;;5089542;28;20186;-86
2022/01/23 00:32:40;;;;;;;8.95;6.50;;;;;12.90;103325.00;;;;5088793;28;20216;-85
2022/01/23 00:35:07;;;;;;;11.55;8.05;;;;;12.90;103329.00;;;;5088527;28;20191;-87
2022/01/23 00:37:36;;;;;;;11.00;7.70;;;;;12.90;103333.00;;;;5096770;28;20599;-86
2022/01/23 00:40:05;;;;;;;10.52;7.47;;;;;12.90;103331.00;;;;5088899;28;20202;-86
2022/01/23 00:42:33;;;;;;;11.48;8.25;;;;;12.90;103335.00;;;;5099451;28;20193;-86
2022/01/23 00:45:15;;;;;;;9.65;6.72;;;;;12.90;103333.00;;;;5087197;28;20199;-86
2022/01/23 00:47:42;;;;;;;11.35;7.65;;;;;12.90;103332.00;;;;5080627;28;20198;-86
2022/01/23 00:50:10;;;;;;;9.95;7.43;;;;;12.90;103336.00;;;;5088973;28;20318;-86
2022/01/23 00:52:37;;;;;;;10.55;7.00;;;;;12.90;103333.00;;;;5088077;28;20209;-86
2022/01/23 00:55:06;;;;;;;8.45;6.30;;;;;12.80;103330.00;;;;5088604;28;20233;-86
2022/01/23 00:57:34;;;;;;;11.68;6.97;;;;;12.90;103328.00;;;;5088996;28;20225;-86
2022/01/23 01:00:01;;;;;;;12.18;7.78;;;;;12.90;103332.00;;;;5087388;28;20234;-87
2022/01/23 01:02:29;;;;;;;11.07;7.80;;;;;12.90;103322.00;;;;5088160;28;20209;-86
2022/01/23 01:04:56;;;;;;;9.65;7.32;;;;;12.80;103325.00;;;;5089388;28;20530;-86
2022/01/23 01:07:24;;;;;;;9.95;7.80;;;;;12.80;103329.00;;;;5088781;28;20207;-86
2022/01/23 01:09:54;;;;;;;9.25;7.15;;;;;12.80;103328.00;;;;5088240;28;20190;-87
2022/01/23 01:12:27;;;;;;;9.82;6.97;;;;;12.80;103329.00;;;;5087218;28;20632;-86
2022/01/23 01:15:22;;;;;;;9.52;6.90;;;;;12.80;103331.00;;;;5087932;28;20278;-86
2022/01/23 01:31:34;;;;;;;8.23;6.68;;;;;12.70;103316.00;;;;5080766;28;20315;-86
2022/01/23 01:34:07;;;;;;;8.50;6.38;;;;;12.70;103323.00;;;;5092600;28;20268;-86
2022/01/23 01:36:44;;;;;;;9.18;6.93;;;;;12.70;103326.00;;;;5093139;28;20218;-85
2022/01/23 01:39:13;;;;;;;8.13;6.13;;;;;12.70;103326.00;;;;5092618;28;20186;-87
2022/01/23 01:41:42;;;;;;;10.40;7.30;;;;;12.70;103327.00;;;;5097125;28;20194;-85
2022/01/23 01:44:10;;;;;;;8.65;6.15;;;;;12.70;103333.00;;;;5097572;28;20214;-85
2022/01/23 01:46:38;;;;;;;8.02;5.95;;;;;12.80;103331.00;;;;5091932;28;20206;-85
2022/01/23 01:49:06;;;;;;;10.23;6.88;;;;;12.70;103330.00;;;;5092395;28;20204;-87
2022/01/23 01:51:33;;;;;;;9.85;6.57;;;;;12.70;103333.00;;;;5091626;28;20198;-86
2022/01/23 01:54:08;;;;;;;10.02;7.15;;;;;12.70;103332.00;;;;5075937;28;20223;-86
2022/01/23 01:56:46;;;;;;;8.93;6.40;;;;;12.70;103326.00;;;;5081096;28;20216;-86
2022/01/23 01:59:34;;;;;;;8.68;6.25;;;;;12.70;103318.00;;;;5089307;28;20202;-87
2022/01/23 02:10:15;;;;;;;7.20;5.70;;;;;12.60;103302.00;;;;5082222;28;20205;-86
2022/01/23 02:13:09;;;;;;;9.82;5.90;;;;;12.60;103311.00;;;;5091720;28;20190;-86
2022/01/23 02:16:18;;;;;;;8.40;5.68;;;;;12.60;103315.00;;;;5091487;28;20194;-86
2022/01/23 02:52:11;;;;;;;6.20;5.20;;;;;12.60;103305.00;;;;5082856;28;20201;-87
2022/01/23 02:54:55;;;;;;;6.95;5.32;;;;;12.60;103313.00;;;;5083631;28;20227;-88
2022/01/23 02:57:38;;;;;;;8.18;5.35;;;;;12.70;103303.00;;;;5071499;28;20898;-87
2022/01/23 03:00:12;;;;;;;7.30;5.07;;;;;12.70;103299.00;;;;5072475;28;20202;-87
2022/01/23 03:02:43;;;;;;;7.63;5.07;;;;;12.70;103300.00;;;;5087135;28;20194;-85
2022/01/23 03:05:22;;;;;;;6.97;5.05;;;;;12.70;103306.00;;;;5088521;28;20668;-86
2022/01/23 03:08:00;;;;;;;8.52;5.60;;;;;12.70;103301.00;;;;5076313;28;20202;-87
2022/01/23 03:10:33;;;;;;;6.72;5.28;;;;;12.70;103304.00;;;;5090997;28;20201;-86
2022/01/23 03:16:14;;;;;;;6.47;4.43;;;;;12.70;103304.00;;;;5088527;28;20255;-87
2022/01/23 03:24:24;;;;;;;7.95;5.28;;;;;12.80;103305.00;;;;5090338;28;20587;-87
2022/01/23 03:27:03;;;;;;;7.05;5.18;;;;;12.80;103302.00;;;;5082805;28;20194;-87
2022/01/23 03:29:50;;;;;;;6.60;5.03;;;;;12.80;103297.00;;;;5087444;28;20688;-87
2022/01/23 03:32:23;;;;;;;8.40;5.47;;;;;12.80;103308.00;;;;5085298;28;20198;-88
2022/01/23 03:34:50;;;;;;;9.45;5.28;;;;;12.80;103307.00;;;;5084098;28;20198;-88
2022/01/23 03:37:18;;;;;;;7.85;5.47;;;;;12.80;103299.00;;;;5070285;28;20688;-88
2022/01/23 03:39:45;;;;;;;7.00;5.32;;;;;12.80;103306.00;;;;5071919;28;20190;-87
2022/01/23 03:42:14;;;;;;;9.60;5.40;;;;;12.80;103313.00;;;;5083463;28;20198;-87
2022/01/23 03:44:54;;;;;;;6.63;5.55;;;;;12.80;103305.00;;;;5085674;28;20203;-87
2022/01/23 03:47:34;;;;;;;7.40;4.68;;;;;12.80;103313.00;;;;5070354;28;20215;-87
2022/01/23 03:50:00;;;;;;;9.43;5.53;;;;;12.80;103320.00;;;;5077943;28;20192;-87
2022/01/23 03:52:27;;;;;;;6.40;4.93;;;;;12.80;103321.00;;;;5088576;28;20195;-87
2022/01/23 03:54:54;;;;;;;6.60;5.57;;;;;12.80;103318.00;;;;5085873;28;20801;-85
2022/01/23 03:57:23;;;;;;;5.82;4.70;;;;;12.80;103333.00;;;;5070608;28;20222;-86
2022/01/23 03:59:51;;;;;;;9.18;5.50;;;;;12.90;103340.00;;;;5073831;28;20195;-85
2022/01/23 04:02:18;;;;;;;5.95;4.82;;;;;12.90;103340.00;;;;5090074;28;20206;-86
2022/01/23 04:04:45;;;;;;;6.15;5.03;;;;;12.90;103345.00;;;;5091755;28;20662;-86
2022/01/23 04:07:17;;;;;;;7.35;5.70;;;;;12.90;103340.00;;;;5091401;28;20210;-87
2022/01/23 04:09:46;;;;;;;10.05;5.90;;;;;12.90;103336.00;;;;5088907;28;20240;-86
2022/01/23 04:12:27;;;;;;;7.53;5.35;;;;;12.90;103341.00;;;;5089599;28;20190;-86
2022/01/23 04:14:57;;;;;;;8.88;5.45;;;;;12.90;103342.00;;;;5084449;28;20194;-85
2022/01/23 04:18:17;;;;;;;7.63;5.63;;;;;12.90;103344.00;;;;5088550;28;20315;-86
2022/01/23 04:20:36;;;;;;;8.45;5.40;;;;;12.90;103341.00;;;;5080602;28;20200;-86
2022/01/23 04:34:18;;;;;;;8.70;5.45;;;;;12.90;103343.00;;;;5100752;28;20207;-87
2022/01/23 04:45:21;;;;;;;6.97;4.57;;;;;12.90;103347.00;;;;5092072;28;20632;-87
2022/01/23 05:01:52;;;;;;;6.75;4.80;;;;;12.90;103348.00;;;;5068121;28;20209;-87
2022/01/23 05:04:24;;;;;;;6.13;4.28;;;;;12.90;103345.00;;;;5080566;28;20202;-86
2022/01/23 05:06:59;;;;;;;6.53;5.13;;;;;12.90;103341.00;;;;5078287;28;20680;-86
2022/01/23 05:09:27;;;;;;;6.75;5.13;;;;;12.90;103339.00;;;;5077508;28;20686;-86
2022/01/23 05:11:57;;;;;;;7.53;5.35;;;;;12.90;103339.00;;;;5068554;28;20207;-86
2022/01/23 05:14:30;;;;;;;8.45;5.80;;;;;12.90;103346.00;;;;5080838;28;20198;-85
2022/01/23 05:16:57;;;;;;;10.65;6.15;;;;;13.00;103347.00;;;;5092692;28;20288;-85
2022/01/23 05:19:27;;;;;;;6.80;4.88;;;;;12.90;103348.00;;;;5087665;28;20404;-86
2022/01/23 05:24:45;;;;;;;8.52;5.57;;;;;13.00;103348.00;;;;5080711;28;20274;-86
2022/01/23 05:27:14;;;;;;;7.57;5.55;;;;;12.90;103347.00;;;;5089185;28;20201;-86
2022/01/23 05:29:41;;;;;;;7.50;5.60;;;;;12.90;103357.00;;;;5085985;28;20591;-86
2022/01/23 05:32:12;;;;;;;8.88;5.78;;;;;12.90;103345.00;;;;5088560;28;20583;-85
2022/01/23 05:34:42;;;;;;;8.77;6.20;;;;;12.90;103348.00;;;;5075930;28;20238;-85
2022/01/23 05:37:09;;;;;;;7.50;5.25;;;;;12.90;103338.00;;;;5070282;28;20262;-85
2022/01/23 05:39:37;;;;;;;7.50;5.60;;;;;12.90;103343.00;;;;5088758;28;20190;-86
2022/01/23 05:42:08;;;;;;;8.18;5.15;;;;;12.90;103340.00;;;;5088496;28;20268;-86
2022/01/23 05:44:37;;;;;;;8.73;5.65;;;;;12.90;103345.00;;;;5089533;28;20205;-85
2022/01/23 05:47:05;;;;;;;7.85;6.10;;;;;12.90;103342.00;;;;5089725;28;20648;-86
2022/01/23 05:49:33;;;;;;;7.40;5.25;;;;;12.90;103342.00;;;;5088331;28;20201;-86
2022/01/23 05:52:02;;;;;;;12.52;6.20;;;;;12.90;103343.00;;;;5085834;28;20199;-86
2022/01/23 05:54:29;;;;;;;9.50;6.28;;;;;12.90;103352.00;;;;5090078;28;20230;-86
2022/01/23 05:56:57;;;;;;;6.40;4.80;;;;;12.90;103354.00;;;;5108084;28;20190;-87
2022/01/23 05:59:24;;;;;;;6.82;5.10;;;;;12.90;103353.00;;;;5102558;28;20201;-86
2022/01/23 06:01:53;;;;;;;11.07;5.68;;;;;12.90;103349.00;;;;5092907;28;20341;-87
2022/01/23 06:04:21;;;;;;;8.10;5.45;;;;;12.90;103355.00;;;;5092449;28;20301;-87
2022/01/23 06:06:49;;;;;;;7.63;5.70;;;;;12.90;103345.00;;;;5092213;28;20194;-86
2022/01/23 06:09:19;;;;;;;9.75;5.57;;;;;12.90;103352.00;;;;5084744;28;20198;-86
2022/01/23 06:11:47;;;;;;;6.38;5.18;;;;;12.90;103351.00;;;;5097004;28;20281;-87
2022/01/23 06:14:20;;;;;;;6.60;5.18;;;;;12.80;103344.00;;;;5101434;28;20239;-88
2022/01/23 06:16:47;;;;;;;7.28;5.20;;;;;12.90;103351.00;;;;5108704;28;20198;-87
2022/01/23 06:19:16;;;;;;;7.18;4.97;;;;;12.90;103356.00;;;;5111207;28;20216;-87
2022/01/23 06:21:43;;;;;;;6.50;5.13;;;;;12.80;103354.00;;;;5111450;28;20194;-87
2022/01/23 06:24:21;;;;;;;6.53;4.93;;;;;12.90;103353.00;;;;5094031;28;20209;-87
2022/01/23 06:26:52;;;;;;;7.75;4.70;;;;;12.80;103356.00;;;;5079148;28;20225;-86
2022/01/23 06:29:21;;;;;;;9.35;6.07;;;;;12.80;103350.00;;;;5088559;28;20198;-88
2022/01/23 06:31:53;;;;;;;8.20;5.70;;;;;12.80;103350.00;;;;5088568;28;20194;-85
2022/01/23 06:34:20;;;;;;;7.82;5.35;;;;;12.80;103354.00;;;;5091613;28;20282;-87
2022/01/23 06:36:51;;;;;;;7.03;5.07;;;;;12.80;103349.00;;;;5087411;28;21167;-83
2022/01/23 06:39:20;;;;;;;7.53;5.05;;;;;12.80;103353.00;;;;5088170;28;20198;-86
2022/01/23 06:41:48;;;;;;;6.90;5.28;;;;;12.80;103354.00;;;;5088893;28;20198;-87
2022/01/23 06:44:17;;;;;;;8.63;5.30;;;;;12.80;103366.00;;;;5078992;28;20194;-87
2022/01/23 06:46:44;;;;;;;6.18;5.03;;;;;12.80;103365.00;;;;5091807;28;20194;-86
2022/01/23 06:49:13;;;;;;;8.77;6.03;;;;;12.80;103366.00;;;;5071906;28;20199;-86
2022/01/23 06:51:42;;;;;;;8.55;5.65;;;;;12.80;103361.00;;;;5089840;28;20255;-86
2022/01/23 06:54:10;;;;;;;10.80;5.65;;;;;12.80;103374.00;;;;5091825;28;20229;-87
2022/01/23 06:56:37;;;;;;;7.47;5.53;;;;;12.80;103373.00;;;;5092145;28;20198;-86
2022/01/23 06:59:06;;;;;;;7.78;5.80;;;;;12.80;103378.00;;;;5090829;28;20229;-87
2022/01/23 07:01:34;;;;;;;7.82;5.82;;;;;12.70;103372.00;;;;5091028;28;20194;-87
2022/01/23 07:04:02;;;;;;;6.85;5.47;;;;;12.80;103366.00;;;;5091681;28;20198;-87
2022/01/23 07:06:31;;;;;;;9.75;5.72;;;;;12.70;103378.00;;;;5095994;28;20195;-87
2022/01/23 07:08:59;;;;;;;7.45;4.57;;;;;12.80;103376.00;;;;5090912;28;20191;-85
2022/01/23 07:11:26;;;;;;;8.93;5.00;;;;;12.80;103375.00;;;;5090562;28;20206;-85
2022/01/23 07:13:53;;;;;;;7.90;5.90;;;;;12.80;103383.00;;;;5090536;28;20606;-85
2022/01/23 07:16:22;;;;;;;7.97;5.93;;;;;12.70;103380.00;;;;5089613;28;20195;-85
2022/01/23 07:18:49;;;;;;;6.32;4.90;;;;;12.80;103381.00;;;;5089902;28;20229;-85
2022/01/23 07:21:16;;;;;;;7.30;5.45;;;;;12.70;103388.00;;;;5088028;28;20201;-87
2022/01/23 07:23:49;;;;;;;7.22;5.47;;;;;12.70;103399.00;;;;5091051;28;20198;-86
2022/01/23 07:26:18;;;;;;;7.45;6.00;;;;;12.70;103404.00;;;;5090287;28;20186;-86
2022/01/23 07:28:47;;;;;;;9.50;6.20;;;;;12.70;103408.00;;;;5071360;28;20592;-88
2022/01/23 07:31:31;;;;;;;8.13;5.80;;;;;12.70;103408.00;;;;5089780;28;20197;-87
2022/01/23 07:34:00;;;;;;;7.53;5.80;;;;;12.70;103402.00;;;;5077641;28;20740;-86
2022/01/23 07:36:27;;;;;;;7.20;5.35;;;;;12.70;103410.00;;;;5083912;28;20254;-84
2022/01/23 07:38:55;;;;;;;8.27;6.20;;;;;12.70;103401.00;;;;5086231;28;20230;-83
2022/01/23 07:41:22;;;;;;;7.20;5.78;;;;;12.70;103417.00;;;;5088569;28;20202;-83
2022/01/23 07:43:50;;;;;;;10.10;7.00;;;;;12.70;103417.00;;;;5077522;28;20199;-85
2022/01/23 07:46:19;;;;;;;8.27;6.45;;;;;12.70;103416.00;;;;5090041;28;20194;-83
2022/01/23 07:48:46;;;;;;;11.82;7.03;;;;;12.70;103426.00;;;;5089274;28;20202;-83
2022/01/23 07:51:15;;;;;;;8.02;6.18;;;;;12.70;103428.00;;;;5071702;28;20293;-84
2022/01/23 07:53:42;;;;;;;8.98;6.25;;;;;12.70;103437.00;;;;5086099;28;20234;-82
2022/01/23 07:56:09;;;;;;;8.90;6.22;;;;;12.70;103425.00;;;;5089739;28;20203;-84
2022/01/23 07:58:37;;;;;;;8.88;6.22;;;;;12.70;103434.00;;;;5089165;28;20703;-84
2022/01/23 08:01:04;;;;;;;8.38;6.03;;;;;12.70;103433.00;;;;5088852;28;20217;-84
2022/01/23 08:03:31;;;;;;;9.52;6.18;;;;;12.70;103432.00;;;;5088738;28;20194;-85
2022/01/23 08:05:59;;;;;;;9.43;6.40;;;;;12.70;103432.00;;;;5089199;28;20217;-83
2022/01/23 08:08:27;;;;;;;11.80;7.50;;;;;12.80;103429.00;;;;5068973;28;20202;-84
2022/01/23 08:10:55;;;;;;;9.20;6.45;;;;;12.80;103433.00;;;;5083754;28;20197;-83
2022/01/23 08:13:22;;;;;;;9.25;6.32;;;;;12.70;103434.00;;;;5082051;28;20200;-83
2022/01/23 08:15:50;;;;;;;8.18;6.55;;;;;12.70;103433.00;;;;5081445;28;20209;-83
2022/01/23 08:18:17;;;;;;;7.32;5.53;;;;;12.80;103435.00;;;;5082432;28;20226;-83
2022/01/23 08:20:44;;;;;;;8.15;6.18;;;;;12.80;103436.00;;;;5085660;28;20204;-83
2022/01/23 08:23:12;;;;;;;9.30;6.18;;;;;12.80;103435.00;;;;5080300;28;20209;-83
2022/01/23 08:25:42;;;;;;;8.98;6.28;;;;;12.80;103435.00;;;;5080050;28;20564;-83
2022/01/23 08:28:09;;;;;;;8.18;5.95;;;;;12.80;103433.00;;;;5080827;28;20209;-84
2022/01/23 08:30:37;;;;;;;8.38;6.47;;;;;12.80;103431.00;;;;5081165;28;20202;-83
2022/01/23 08:33:05;;;;;;;8.73;6.32;;;;;12.80;103437.00;;;;5088599;28;20195;-85
2022/01/23 08:35:32;;;;;;;9.80;6.28;;;;;12.90;103441.00;;;;5084498;28;20186;-85
2022/01/23 08:37:59;;;;;;;7.43;5.70;;;;;12.90;103439.00;;;;5078817;28;20684;-84
2022/01/23 08:40:47;;;;;;;8.93;6.40;;;;;12.90;103442.00;;;;5083123;28;20206;-84
2022/01/23 08:43:17;;;;;;;7.50;5.57;;;;;12.90;103447.00;;;;5081933;28;20287;-85
2022/01/23 08:45:45;;;;;;;8.07;6.10;;;;;12.90;103444.00;;;;5081560;28;20325;-83
2022/01/23 08:48:13;;;;;;;9.48;6.35;;;;;12.90;103447.00;;;;5080490;28;20195;-84
2022/01/23 08:50:40;;;;;;;9.77;6.50;;;;;12.90;103454.00;;;;5079049;28;20575;-84
2022/01/23 08:53:09;;;;;;;9.32;6.22;;;;;12.90;103453.00;;;;5080678;28;20190;-86
2022/01/23 08:55:36;;;;;;;9.57;7.05;;;;;13.00;103458.00;;;;5085848;28;20234;-84
2022/01/23 08:58:04;;;;;;;8.23;6.05;;;;;13.00;103452.00;;;;5077224;28;20228;-85
2022/01/23 09:00:32;;;;;;;8.82;6.30;;;;;13.00;103458.00;;;;5079707;28;20750;-84
2022/01/23 09:03:00;;;;;;;10.50;6.75;;;;;13.00;103457.00;;;;5080443;28;20691;-83
2022/01/23 09:05:29;;;;;;;8.90;6.13;;;;;13.00;103464.00;;;;5082123;28;20573;-84
2022/01/23 09:07:56;;;;;;;10.73;7.47;;;;;13.00;103464.00;;;;5084838;28;20187;-87
2022/01/23 09:10:27;;;;;;;9.50;6.63;;;;;13.00;103466.00;;;;5083059;28;20205;-85
2022/01/23 09:13:11;;;;;;;10.70;6.78;;;;;13.10;103466.00;;;;5088575;28;20197;-86
2022/01/23 09:15:39;;;;;;;10.88;6.90;;;;;13.10;103457.00;;;;5081929;28;20198;-86
2022/01/23 09:18:07;;;;;;;11.15;7.65;;;;;13.10;103460.00;;;;5091302;28;20217;-87
2022/01/23 09:20:35;;;;;;;9.73;7.22;;;;;13.20;103464.00;;;;5104469;28;20205;-85
2022/01/23 09:23:02;;;;;;;10.48;7.63;;;;;13.20;103463.00;;;;5088600;28;20193;-86
2022/01/23 09:25:29;;;;;;;9.30;6.65;;;;;13.20;103458.00;;;;5088710;28;20209;-85
2022/01/23 09:28:03;;;;;;;9.27;6.43;;;;;13.20;103470.00;;;;5100047;28;20218;-85
2022/01/23 09:30:35;;;;;;;9.73;6.93;;;;;13.30;103474.00;;;;5104345;28;20196;-86
2022/01/23 09:33:04;;;;;;;10.32;6.63;;;;;13.30;103468.00;;;;5101431;28;20185;-85
2022/01/23 09:35:31;;;;;;;9.88;5.68;;;;;13.30;103469.00;;;;5097416;28;20187;-84
2022/01/23 09:37:59;;;;;;;9.07;6.43;;;;;13.30;103470.00;;;;5098995;28;20229;-83
2022/01/23 09:40:27;;;;;;;10.35;7.00;;;;;13.40;103463.00;;;;5101143;28;20209;-80
2022/01/23 09:43:00;;;;;;;9.88;7.00;;;;;13.30;103475.00;;;;5091823;28;20190;-81
2022/01/23 09:45:27;;;;;;;8.85;6.18;;;;;13.40;103472.00;;;;5100211;28;20193;-80
2022/01/23 09:47:56;;;;;;;11.05;7.28;;;;;13.40;103468.00;;;;5092386;28;20198;-83
2022/01/23 09:50:25;;;;;;;10.35;6.57;;;;;13.40;103472.00;;;;5088839;28;20259;-83
2022/01/23 09:52:54;;;;;;;9.27;5.80;;;;;13.50;103474.00;;;;5087684;28;20238;-85
2022/01/23 09:55:25;;;;;;;8.57;6.20;;;;;13.50;103476.00;;;;5091313;28;20230;-83
2022/01/23 09:57:52;;;;;;;7.90;5.53;;;;;13.50;103482.00;;;;5091237;28;20194;-87
2022/01/23 10:00:24;;;;;;;8.82;6.00;;;;;13.60;103493.00;;;;5092738;28;20714;-85
2022/01/23 10:02:51;;;;;;;8.75;6.15;;;;;13.60;103487.00;;;;5092219;28;20198;-84
2022/01/23 10:05:19;;;;;;;10.18;6.38;;;;;13.70;103487.00;;;;5090609;28;20664;-82
2022/01/23 10:07:48;;;;;;;8.70;6.63;;;;;13.70;103490.00;;;;5095059;28;20197;-83
2022/01/23 10:10:21;;;;;;;8.07;5.97;;;;;13.70;103486.00;;;;5112174;28;20213;-87
2022/01/23 10:12:50;;;;;;;9.68;5.93;;;;;13.70;103485.00;;;;5096459;28;20198;-83
2022/01/23 10:15:19;;;;;;;8.15;5.82;;;;;13.80;103478.00;;;;5092043;28;20206;-87
2022/01/23 10:17:46;;;;;;;8.20;5.75;;;;;13.80;103484.00;;;;5093923;28;20193;-87
2022/01/23 10:20:15;;;;;;;6.63;4.90;;;;;13.90;103488.00;;;;5111340;28;20703;-84
2022/01/23 10:22:46;;;;;;;7.85;5.47;;;;;13.90;103484.00;;;;5099834;28;20198;-82
2022/01/23 10:25:16;;;;;;;7.65;5.10;;;;;13.90;103485.00;;;;5091716;28;20209;-81
2022/01/23 10:28:00;;;;;;;8.10;5.57;;;;;13.90;103483.00;;;;5090706;28;20194;-83
2022/01/23 10:30:29;;;;;;;6.50;4.53;;;;;14.00;103478.00;;;;5093957;28;20198;-81
2022/01/23 10:32:59;;;;;;;5.72;3.92;;;;;14.00;103474.00;;;;5092166;28;20190;-81
2022/01/23 10:35:27;;;;;;;6.20;4.07;;;;;14.00;103471.00;;;;5091023;28;20205;-81
2022/01/23 10:37:55;;;;;;;8.48;4.68;;;;;14.10;103470.00;;;;5091338;28;20564;-80
2022/01/23 10:40:32;;;;;;;9.40;5.38;;;;;14.00;103474.00;;;;5089550;28;20249;-81
2022/01/23 10:48:47;;;;;;;5.95;4.47;;;;;14.20;103477.00;;;;5101799;28;20728;-82
2022/01/23 10:51:21;;;;;;;5.57;4.38;;;;;14.20;103470.00;;;;5093632;28;20558;-81
2022/01/23 10:53:59;;;;;;;6.75;4.40;;;;;14.20;103474.00;;;;5089444;28;20276;-80
2022/01/23 10:56:29;;;;;;;7.25;5.05;;;;;14.30;103468.00;;;;5083740;28;20201;-81
2022/01/23 10:59:01;;;;;;;6.68;4.85;;;;;14.30;103465.00;;;;5082716;28;20265;-80
2022/01/23 11:01:29;;;;;;;8.70;5.22;;;;;14.30;103468.00;;;;5091882;28;20198;-81
2022/01/23 11:04:12;;;;;;;6.90;4.78;;;;;14.30;103466.00;;;;5091308;28;20242;-80
2022/01/23 11:06:56;;;;;;;7.55;5.22;;;;;14.40;103457.00;;;;5083726;28;20682;-80
2022/01/23 11:09:29;;;;;;;5.68;3.97;;;;;14.50;103459.00;;;;5087052;28;20198;-82
2022/01/23 11:12:03;;;;;;;7.03;4.55;;;;;14.50;103461.00;;;;5089899;28;20193;-81
2022/01/23 11:17:23;;;;;;;4.55;3.10;;;;;14.60;103455.00;;;;5095435;28;20298;-80
2022/01/23 11:19:55;;;;;;;4.97;2.85;;;;;14.60;103450.00;;;;5094572;28;20310;-80
2022/01/23 11:22:25;;;;;;;4.88;3.53;;;;;14.70;103453.00;;;;5089817;28;20194;-78
2022/01/23 11:24:52;;;;;;;4.45;2.92;;;;;14.70;103450.00;;;;5090209;28;20649;-78
2022/01/23 11:27:23;;;;;;;5.70;3.30;;;;;14.70;103450.00;;;;5097853;28;21013;-79
2022/01/23 11:29:58;;;;;;;5.15;3.03;;;;;14.70;103442.00;;;;5096084;28;20205;-80
2022/01/23 11:32:29;;;;;;;5.82;3.90;;;;;14.80;103436.00;;;;5080239;28;20214;-78
2022/01/23 11:35:05;;;;;;;5.55;3.72;;;;;14.80;103436.00;;;;5100949;28;20626;-78
2022/01/23 11:37:33;;;;;;;5.35;3.65;;;;;14.90;103443.00;;;;5088772;28;20198;-78
2022/01/23 11:40:07;;;;;;;5.95;3.90;;;;;14.90;103439.00;;;;5096427;28;20222;-78
2022/01/23 11:53:52;;;;;;;3.70;2.70;;;;;15.00;103429.00;;;;5086679;28;20208;-78
2022/01/23 11:56:39;;;;;;;3.50;2.22;;;;;14.90;103432.00;;;;5089643;28;20209;-78
2022/01/23 11:59:22;;;;;;;4.38;2.78;;;;;14.90;103436.00;;;;5088022;28;20336;-78
2022/01/23 12:02:20;;;;;;;6.00;3.33;;;;;14.90;103432.00;;;;5089263;28;20212;-78
2022/01/23 12:05:21;;;;;;;4.63;3.35;;;;;14.90;103429.00;;;;5083794;28;20264;-78
2022/01/23 12:17:14;;;;;;;5.30;3.55;;;;;15.00;103422.00;;;;5070281;28;20570;-78
2022/01/23 12:19:44;;;;;;;5.15;3.40;;;;;15.00;103420.00;;;;5082319;28;20224;-78
2022/01/23 12:22:35;;;;;;;5.65;3.70;;;;;14.90;103421.00;;;;5088466;28;20284;-78
2022/01/23 12:25:24;;;;;;;6.18;3.78;;;;;15.00;103418.00;;;;5089063;28;20193;-78
2022/01/23 12:28:12;;;;;;;5.32;3.78;;;;;15.00;103414.00;;;;5082008;28;20190;-78
2022/01/23 12:30:43;;;;;;;6.18;3.83;;;;;15.10;103408.00;;;;5088541;28;20202;-78
2022/01/23 12:33:13;;;;;;;7.00;3.83;;;;;15.10;103411.00;;;;5089297;28;20202;-78
2022/01/23 12:35:42;;;;;;;5.07;3.20;;;;;15.10;103409.00;;;;5088246;28;20198;-78
2022/01/23 12:38:11;;;;;;;5.72;3.47;;;;;15.10;103403.00;;;;5087847;28;20205;-78
2022/01/23 12:40:41;;;;;;;4.00;2.78;;;;;15.10;103402.00;;;;5068502;28;20230;-78
2022/01/23 12:43:10;;;;;;;4.60;3.22;;;;;15.10;103404.00;;;;5068451;28;20214;-78
2022/01/23 12:45:52;;;;;;;5.05;3.38;;;;;15.00;103399.00;;;;5068520;28;20209;-78
2022/01/23 12:48:48;;;;;;;4.50;2.97;;;;;15.00;103397.00;;;;5068928;28;20631;-78
2022/01/23 12:51:41;;;;;;;4.80;2.65;;;;;15.00;103409.00;;;;5068702;28;20210;-78
2022/01/23 12:54:31;;;;;;;4.75;2.85;;;;;15.00;103402.00;;;;5085143;28;20230;-78
2022/01/23 12:57:07;;;;;;;3.60;2.60;;;;;15.00;103399.00;;;;5072999;28;20207;-77
2022/01/23 12:59:35;;;;;;;3.67;2.42;;;;;15.00;103404.00;;;;5074571;28;20307;-78
2022/01/23 13:02:11;;;;;;;3.42;2.40;;;;;15.00;103396.00;;;;5088026;28;20202;-78
2022/01/23 13:04:42;;;;;;;3.80;2.42;;;;;15.00;103393.00;;;;5088533;28;20260;-78
2022/01/23 13:07:21;;;;;;;4.18;2.38;;;;;15.00;103388.00;;;;5088386;28;20212;-78
2022/01/23 13:09:54;;;;;;;3.22;2.05;;;;;15.00;103388.00;;;;5088642;28;20660;-78
2022/01/23 13:12:51;;;;;;;4.07;2.35;;;;;15.00;103384.00;;;;5090629;28;20186;-78
2022/01/23 13:15:41;;;;;;;3.95;2.78;;;;;14.90;103393.00;;;;5072598;28;20285;-78
2022/01/23 13:18:29;;;;;;;3.85;2.38;;;;;14.90;103383.00;;;;5072432;28;20197;-78
2022/01/23 13:27:03;;;;;;;5.05;2.80;;;;;14.90;103378.00;;;;5072614;28;20244;-78
2022/01/23 13:32:27;;;;;;;4.10;2.72;;;;;14.90;103376.00;;;;5090508;28;20205;-78
2022/01/23 13:35:02;;;;;;;4.57;3.33;;;;;14.90;103383.00;;;;5091738;28;20205;-78
2022/01/23 13:37:31;;;;;;;5.40;3.03;;;;;14.90;103382.00;;;;5092459;28;20198;-78
2022/01/23 13:40:03;;;;;;;4.93;2.97;;;;;14.90;103376.00;;;;5091505;28;20304;-78
2022/01/23 13:42:50;;;;;;;4.13;3.17;;;;;14.90;103377.00;;;;5092628;28;20222;-78
2022/01/23 13:57:32;;;;;;;4.18;2.92;;;;;14.90;103375.00;;;;5043937;28;20241;-78
2022/01/23 13:59:57;;;;;;;4.03;2.80;;;;;14.90;103377.00;;;;5082412;28;20594;-78
2022/01/23 14:02:26;;;;;;;5.18;3.38;;;;;14.90;103379.00;;;;5090648;28;20695;-78
2022/01/23 14:04:56;;;;;;;5.45;3.03;;;;;14.90;103378.00;;;;5075068;28;20226;-78
2022/01/23 14:07:27;;;;;;;4.25;2.78;;;;;14.90;103381.00;;;;5075602;28;20694;-78
2022/01/23 14:09:56;;;;;;;4.40;3.17;;;;;14.80;103375.00;;;;5090834;28;20198;-78
2022/01/23 14:12:26;;;;;;;3.78;2.65;;;;;14.80;103365.00;;;;5091149;28;20206;-78
2022/01/23 14:14:56;;;;;;;5.65;3.50;;;;;14.80;103370.00;;;;5090285;28;20190;-78
2022/01/23 14:17:25;;;;;;;6.03;3.25;;;;;14.80;103360.00;;;;5091021;28;20652;-78
2022/01/23 14:20:01;;;;;;;5.40;3.70;;;;;14.80;103367.00;;;;5090420;28;20225;-78
2022/01/23 14:22:36;;;;;;;4.10;3.10;;;;;14.80;103363.00;;;;5070476;28;20579;-78
2022/01/23 14:25:14;;;;;;;5.88;3.80;;;;;14.70;103359.00;;;;5069971;28;20202;-78
2022/01/23 14:27:44;;;;;;;4.82;3.10;;;;;14.80;103360.00;;;;5070204;28;20198;-78
2022/01/23 14:30:15;;;;;;;5.40;3.38;;;;;14.80;103359.00;;;;5070873;28;20203;-78
2022/01/23 14:32:47;;;;;;;5.53;3.78;;;;;14.80;103362.00;;;;5070234;28;20218;-78
2022/01/23 14:35:17;;;;;;;7.32;3.95;;;;;14.80;103357.00;;;;5070217;28;20566;-78
2022/01/23 14:37:47;;;;;;;4.68;3.42;;;;;14.70;103366.00;;;;5071224;28;20993;-79
2022/01/23 14:40:18;;;;;;;4.20;3.03;;;;;14.70;103362.00;;;;5085200;28;20230;-79
2022/01/23 14:43:08;;;;;;;4.22;3.20;;;;;14.70;103372.00;;;;5086493;28;20191;-79
2022/01/23 14:45:38;;;;;;;4.15;2.95;;;;;14.70;103366.00;;;;5090059;28;20199;-80
2022/01/23 14:48:06;;;;;;;4.60;3.20;;;;;14.70;103363.00;;;;5084590;28;20205;-79
2022/01/23 14:50:37;;;;;;;4.63;2.95;;;;;14.70;103367.00;;;;5089984;28;20241;-80
2022/01/23 14:53:12;;;;;;;4.47;3.17;;;;;14.70;103368.00;;;;5088862;28;20206;-80
2022/01/23 14:55:41;;;;;;;4.13;2.95;;;;;14.70;103373.00;;;;5077499;28;20233;-80
2022/01/23 14:58:11;;;;;;;5.40;3.50;;;;;14.70;103372.00;;;;5088005;28;20922;-80
2022/01/23 15:00:38;;;;;;;5.70;3.05;;;;;14.70;103367.00;;;;5087411;28;20221;-80
2022/01/23 15:03:07;;;;;;;4.88;3.33;;;;;14.60;103364.00;;;;5088740;28;20201;-80
2022/01/23 15:05:37;;;;;;;4.57;3.15;;;;;14.60;103366.00;;;;5086919;28;20198;-80
2022/01/23 15:08:08;;;;;;;5.10;3.42;;;;;14.60;103364.00;;;;5088868;28;20199;-80
2022/01/23 15:10:37;;;;;;;5.40;3.90;;;;;14.60;103371.00;;;;5089826;28;20198;-80
2022/01/23 15:13:05;;;;;;;5.40;3.38;;;;;14.60;103376.00;;;;5083834;28;20202;-80